Time;durP1;ratioP1;P1;durP2;ratioP2;P2;SDS_P1;SDS_P2;PMS_P1;PMS_P2;Temp;Humidity;BMP_temperature;BMP_pressure;BME280_temperature;BME280_humidity;BME280_pressure;Samples;Min_cycle;Max_cycle;Signal;HPM_P1;HPM_P2
2022/05/20 00:02:16;;;;;;;49.95;42.50;;;;;;;14.29;82.91;101967.63;3571509;40;20052;-63
2022/05/20 00:04:41;;;;;;;48.42;42.28;;;;;;;14.24;82.13;101967.03;3571315;40;20291;-63
2022/05/20 00:07:09;;;;;;;50.70;44.58;;;;;;;14.19;83.22;101963.72;3571989;40;20060;-63
2022/05/20 00:09:36;;;;;;;49.75;43.65;;;;;;;14.09;83.53;101956.16;3570989;40;20366;-62
2022/05/20 00:12:04;;;;;;;49.97;44.55;;;;;;;14.10;83.47;101955.19;3571800;40;20044;-62
2022/05/20 00:14:31;;;;;;;50.85;43.30;;;;;;;14.07;83.55;101944.53;3572139;40;20371;-61
2022/05/20 00:17:01;;;;;;;47.47;42.50;;;;;;;14.05;83.12;101946.50;3571312;40;20063;-63
2022/05/20 00:19:27;;;;;;;49.88;42.08;;;;;;;14.11;83.53;101962.34;3571060;40;20150;-61
2022/05/20 00:21:53;;;;;;;47.78;41.97;;;;;;;14.00;83.34;101955.81;3570543;40;20076;-61
2022/05/20 00:24:19;;;;;;;50.65;43.40;;;;;;;14.02;83.20;101953.88;3570868;40;20280;-63
2022/05/20 00:26:44;;;;;;;55.90;42.47;;;;;;;13.97;83.32;101951.47;3571065;40;20079;-63
2022/05/20 00:29:10;;;;;;;50.55;44.97;;;;;;;13.50;83.61;101865.91;3571369;40;20055;-63
2022/05/20 00:31:35;;;;;;;50.85;42.13;;;;;;;13.97;83.66;101954.16;3571654;40;20052;-63
2022/05/20 00:34:01;;;;;;;49.22;43.97;;;;;;;13.93;83.39;101947.19;3573507;40;20311;-63
2022/05/20 00:36:26;;;;;;;54.95;42.40;;;;;;;13.94;83.47;101948.94;3569172;40;20104;-61
2022/05/20 00:38:52;;;;;;;44.13;39.40;;;;;;;13.90;83.45;101941.97;3574075;40;20121;-61
2022/05/20 00:41:18;;;;;;;47.22;40.55;;;;;;;13.87;83.26;101943.00;3571149;40;20060;-63
2022/05/20 00:43:48;;;;;;;53.33;44.30;;;;;;;13.91;83.55;101949.13;3574281;40;20067;-61
2022/05/20 00:46:22;;;;;;;51.47;44.47;;;;;;;13.91;83.86;101943.72;3574122;40;20059;-61
2022/05/20 00:49:02;;;;;;;53.83;43.53;;;;;;;13.92;83.32;101950.84;3573421;40;20060;-61
2022/05/20 00:51:39;;;;;;;50.88;42.15;;;;;;;13.82;82.64;101939.69;3573708;40;20093;-60
2022/05/20 00:54:13;;;;;;;48.95;42.03;;;;;;;13.85;83.05;101938.66;3574764;40;20067;-61
2022/05/20 00:56:48;;;;;;;47.63;41.67;;;;;;;13.91;82.97;101943.72;3572889;40;20406;-64
2022/05/20 00:59:26;;;;;;;46.53;41.42;;;;;;;13.90;82.42;101941.97;3571685;40;20063;-63
2022/05/20 01:01:57;;;;;;;49.45;42.60;;;;;;;13.83;82.56;101935.19;3571652;40;20276;-62
2022/05/20 01:04:24;;;;;;;49.63;42.80;;;;;;;13.66;82.90;101923.50;3571532;40;20045;-61
2022/05/20 01:06:50;;;;;;;46.85;41.40;;;;;;;13.81;83.52;101950.59;3573056;40;20134;-61
2022/05/20 01:09:16;;;;;;;48.38;42.78;;;;;;;13.68;83.56;101932.41;3574396;40;20474;-61
2022/05/20 01:11:42;;;;;;;47.50;42.17;;;;;;;13.77;83.86;101949.91;3572116;40;20052;-61
2022/05/20 01:14:10;;;;;;;48.72;41.95;;;;;;;13.73;83.79;101950.16;3571153;40;20045;-61
2022/05/20 01:16:37;;;;;;;48.20;41.78;;;;;;;13.62;83.92;101926.47;3573621;40;20360;-61
2022/05/20 01:19:14;;;;;;;46.33;41.28;;;;;;;13.73;83.27;101955.56;3573207;40;20072;-62
2022/05/20 01:21:40;;;;;;;49.95;41.92;;;;;;;13.74;83.33;101962.75;3572511;40;20146;-61
2022/05/20 01:24:05;;;;;;;45.50;40.58;;;;;;;13.70;83.26;101956.59;3573715;40;20383;-61
2022/05/20 01:26:31;;;;;;;50.00;41.67;;;;;;;13.65;83.55;101954.19;3574163;40;20681;-61
2022/05/20 01:28:56;;;;;;;43.50;38.85;;;;;;;13.57;83.46;101933.94;3577256;40;20268;-61
2022/05/20 01:31:22;;;;;;;50.75;40.97;;;;;;;13.43;83.83;101911.31;3575931;40;20051;-61
2022/05/20 01:33:51;;;;;;;45.20;38.78;;;;;;;13.59;83.21;101935.63;3572158;40;20623;-61
2022/05/20 01:36:23;;;;;;;45.15;39.50;;;;;;;13.58;83.78;101936.59;3572103;40;20371;-61
2022/05/20 01:38:52;;;;;;;47.00;38.45;;;;;;;13.59;83.43;101934.75;3572909;40;20407;-61
2022/05/20 01:41:48;;;;;;;44.50;37.97;;;;;;;13.55;83.41;101928.66;3571611;40;20089;-61
2022/05/20 01:44:44;;;;;;;45.63;37.83;;;;;;;13.42;83.25;101908.69;3572038;40;20059;-61
2022/05/20 01:47:58;;;;;;;44.97;39.72;;;;;;;13.43;83.84;101922.09;3573543;40;20101;-61
2022/05/20 01:50:33;;;;;;;43.95;36.63;;;;;;;13.45;83.48;101924.72;3571951;40;20057;-61
2022/05/20 01:53:16;;;;;;;46.28;38.53;;;;;;;13.40;83.55;101907.91;3572067;40;20092;-62
2022/05/20 01:56:05;;;;;;;43.00;38.03;;;;;;;13.28;83.84;101897.78;3570043;40;20048;-62
2022/05/20 01:58:47;;;;;;;42.10;37.17;;;;;;;13.37;83.83;101910.78;3571815;40;20372;-61
2022/05/20 02:01:38;;;;;;;43.45;37.80;;;;;;;13.39;84.32;101908.88;3572690;40;20111;-61
2022/05/20 02:04:18;;;;;;;38.25;34.05;;;;;;;13.45;83.86;101919.34;3573284;40;20114;-62
2022/05/20 02:06:53;;;;;;;41.58;35.75;;;;;;;13.42;83.98;101901.47;3571530;40;20052;-61
2022/05/20 02:09:33;;;;;;;41.58;36.60;;;;;;;13.45;83.58;101911.22;3571954;40;20080;-62
2022/05/20 02:11:59;;;;;;;40.80;34.28;;;;;;;13.45;83.13;101908.53;3572306;40;20061;-61
2022/05/20 02:14:43;;;;;;;43.65;36.30;;;;;;;13.42;83.38;101904.16;3572193;40;20092;-63
2022/05/20 02:17:27;;;;;;;43.10;37.10;;;;;;;13.36;83.33;101899.09;3572118;40;20107;-61
2022/05/20 02:20:01;;;;;;;48.38;37.90;;;;;;;13.40;83.34;101910.59;3570950;40;20123;-61
2022/05/20 02:22:34;;;;;;;46.65;38.97;;;;;;;13.36;83.74;101909.03;3571921;40;20126;-61
2022/05/20 02:25:05;;;;;;;48.47;40.15;;;;;;;13.28;84.06;101900.50;3572258;40;20077;-61
2022/05/20 02:27:39;;;;;;;47.58;39.42;;;;;;;13.30;84.77;101903.97;3571546;40;20037;-61
2022/05/20 02:30:15;;;;;;;45.22;40.17;;;;;;;13.27;84.25;101887.94;3572716;40;20130;-62
2022/05/20 02:32:59;;;;;;;47.65;39.08;;;;;;;13.33;84.07;101899.28;3572674;40;20041;-61
2022/05/20 02:35:25;;;;;;;46.53;38.50;;;;;;;13.31;83.74;101900.31;3571645;40;20477;-61
2022/05/20 02:37:50;;;;;;;53.78;43.72;;;;;;;13.29;84.00;101903.13;3571583;40;20044;-61
2022/05/20 02:40:19;;;;;;;52.95;44.75;;;;;;;13.21;84.51;101898.09;3571272;40;20115;-61
2022/05/20 02:42:45;;;;;;;53.60;44.30;;;;;;;13.32;84.37;101908.34;3571214;40;20423;-61
2022/05/20 02:45:13;;;;;;;54.03;43.28;;;;;;;13.32;84.05;101907.44;3572969;40;20307;-62
2022/05/20 02:47:39;;;;;;;47.35;41.15;;;;;;;13.08;83.38;101866.47;3572147;40;20157;-61
2022/05/20 02:50:09;;;;;;;53.72;44.10;;;;;;;13.25;83.62;101901.53;3571988;40;20064;-61
2022/05/20 02:52:36;;;;;;;54.78;42.80;;;;;;;13.22;83.99;101898.97;3571707;40;20273;-61
2022/05/20 02:55:04;;;;;;;52.22;41.95;;;;;;;13.17;83.95;101899.22;3571702;40;20399;-61
2022/05/20 02:57:30;;;;;;;51.13;43.08;;;;;;;13.16;84.34;101897.50;3571822;40;20056;-61
2022/05/20 03:05:24;;;;;;;55.15;44.00;;;;;;;13.15;84.13;101886.78;3570789;40;20076;-61
2022/05/20 03:07:50;;;;;;;50.95;43.03;;;;;;;13.14;83.77;101888.59;3571688;40;20375;-62
2022/05/20 03:10:15;;;;;;;50.08;42.63;;;;;;;13.10;84.17;101884.34;3570521;40;20060;-62
2022/05/20 03:12:41;;;;;;;51.60;43.10;;;;;;;13.07;84.47;101878.25;3572013;40;20426;-63
2022/05/20 03:15:11;;;;;;;51.65;43.47;;;;;;;12.90;84.44;101844.06;3571769;40;20059;-62
2022/05/20 03:17:38;;;;;;;52.35;43.38;;;;;;;13.16;84.43;101886.69;3572981;40;20061;-62
2022/05/20 03:20:08;;;;;;;50.53;42.85;;;;;;;13.21;84.73;101897.22;3570188;40;20049;-62
2022/05/20 03:22:36;;;;;;;54.97;43.70;;;;;;;13.23;84.62;101896.19;3571566;40;20052;-62
2022/05/20 03:25:04;;;;;;;51.80;44.45;;;;;;;13.13;84.63;101876.06;3572203;40;20059;-63
2022/05/20 03:27:31;;;;;;;52.05;42.58;;;;;;;13.25;84.48;101882.63;3570913;40;20045;-62
2022/05/20 03:29:56;;;;;;;48.47;42.92;;;;;;;13.27;84.61;101888.81;3571136;40;20331;-63
2022/05/20 03:32:22;;;;;;;48.75;40.42;;;;;;;13.15;84.37;101865.16;3573887;40;20072;-62
2022/05/20 03:34:47;;;;;;;52.20;42.28;;;;;;;13.28;84.73;101879.75;3573212;40;20122;-62
2022/05/20 03:37:13;;;;;;;51.33;43.38;;;;;;;13.30;84.54;101882.38;3576759;40;20060;-63
2022/05/20 03:39:38;;;;;;;47.30;41.72;;;;;;;13.31;84.65;101878.72;3577251;40;20056;-63
2022/05/20 03:42:05;;;;;;;50.70;42.00;;;;;;;13.32;84.20;101888.53;3572691;40;20060;-63
2022/05/20 03:44:31;;;;;;;49.95;43.13;;;;;;;13.36;84.27;101884.75;3573362;40;20053;-63
2022/05/20 03:46:58;;;;;;;51.75;42.00;;;;;;;13.33;83.74;101879.50;3572985;40;20110;-62
2022/05/20 03:49:28;;;;;;;55.80;44.00;;;;;;;13.37;84.70;101867.56;3573815;40;20100;-62
2022/05/20 03:51:57;;;;;;;57.00;46.25;;;;;;;13.37;85.04;101862.16;3572153;40;20462;-63
2022/05/20 03:54:28;;;;;;;52.67;43.38;;;;;;;13.43;85.25;101869.91;3572695;40;20374;-62
2022/05/20 03:56:54;;;;;;;54.40;44.30;;;;;;;13.35;85.08;101855.97;3572821;40;20056;-63
2022/05/20 03:59:21;;;;;;;53.47;44.30;;;;;;;13.43;85.01;101862.69;3573648;40;20061;-62
2022/05/20 04:01:59;;;;;;;54.92;46.72;;;;;;;13.43;85.19;101849.19;3573179;40;20069;-63
2022/05/20 04:04:31;;;;;;;54.67;46.78;;;;;;;13.37;84.61;101830.63;3573741;40;20055;-62
2022/05/20 04:07:03;;;;;;;55.35;46.72;;;;;;;13.31;84.97;101813.91;3574870;40;20328;-62
2022/05/20 04:09:28;;;;;;;53.75;42.22;;;;;;;13.43;84.93;101835.66;3571866;40;20130;-63
2022/05/20 04:11:58;;;;;;;58.50;45.70;;;;;;;13.53;84.58;101844.09;3571698;40;20303;-64
2022/05/20 04:14:28;;;;;;;57.38;47.67;;;;;;;13.51;84.78;101837.94;3571983;40;20048;-63
2022/05/20 04:16:57;;;;;;;64.53;51.03;;;;;;;13.60;85.17;101840.09;3571215;40;20056;-63
2022/05/20 04:19:29;;;;;;;66.53;50.97;;;;;;;13.56;85.00;101830.44;3572049;40;20055;-63
2022/05/20 04:22:08;;;;;;;63.55;51.05;;;;;;;13.56;85.11;101834.97;3570249;40;20056;-65
2022/05/20 04:24:36;;;;;;;63.67;50.47;;;;;;;13.64;84.97;101830.88;3571422;40;20068;-63
2022/05/20 04:27:01;;;;;;;64.00;50.80;;;;;;;13.67;84.86;101837.94;3571263;40;20127;-63
2022/05/20 04:29:27;;;;;;;68.30;53.10;;;;;;;13.65;85.52;101824.50;3570954;40;20057;-62
2022/05/20 04:31:53;;;;;;;73.70;58.70;;;;;;;13.79;85.83;101841.72;3570789;40;20488;-62
2022/05/20 04:34:19;;;;;;;78.53;59.30;;;;;;;13.80;86.07;101835.38;3572233;40;20049;-62
2022/05/20 04:36:45;;;;;;;70.20;56.28;;;;;;;13.79;85.99;101826.38;3571028;40;20135;-63
2022/05/20 04:39:11;;;;;;;67.97;54.78;;;;;;;13.90;85.85;101839.25;3571515;40;20100;-62
2022/05/20 04:47:18;;;;;;;66.85;53.35;;;;;;;13.87;85.78;101824.09;3571393;40;20127;-62
2022/05/20 04:49:44;;;;;;;70.35;52.88;;;;;;;13.96;86.01;101844.31;3572006;40;20083;-64
2022/05/20 04:52:10;;;;;;;70.47;53.83;;;;;;;14.03;85.55;101859.19;3570974;40;20060;-62
2022/05/20 04:54:52;;;;;;;62.53;51.33;;;;;;;14.01;85.07;101855.69;3570666;40;20048;-62
2022/05/20 04:57:29;;;;;;;59.72;49.55;;;;;;;13.75;84.99;101805.03;3571387;40;20053;-62
2022/05/20 05:00:14;;;;;;;65.80;50.75;;;;;;;14.17;85.19;101867.31;3571924;40;20058;-62
2022/05/20 05:02:40;;;;;;;61.13;50.60;;;;;;;14.26;85.25;101867.75;3569772;40;20118;-62
2022/05/20 05:05:11;;;;;;;61.15;49.92;;;;;;;14.34;85.48;101865.44;3571158;40;20051;-63
2022/05/20 05:07:40;;;;;;;60.45;49.35;;;;;;;14.39;85.34;101864.19;3570805;40;20069;-63
2022/05/20 05:10:08;;;;;;;58.42;47.92;;;;;;;14.51;84.99;101862.59;3570022;40;20056;-62
2022/05/20 05:12:34;;;;;;;60.13;47.95;;;;;;;14.53;84.79;101849.84;3571499;40;20123;-63
2022/05/20 05:15:00;;;;;;;59.53;50.17;;;;;;;14.65;84.53;101859.03;3573029;40;20065;-63
2022/05/20 05:20:23;;;;;;;53.60;47.25;;;;;;;14.80;84.08;101852.66;3572306;40;20107;-63
2022/05/20 05:22:51;;;;;;;55.38;47.40;;;;;;;14.84;83.87;101853.31;3570468;40;20107;-63
2022/05/20 05:25:20;;;;;;;53.28;46.30;;;;;;;14.97;83.60;101858.81;3571831;40;20314;-63
2022/05/20 05:27:46;;;;;;;53.90;48.08;;;;;;;15.00;83.70;101864.06;3572544;40;20075;-63
2022/05/20 05:30:13;;;;;;;57.80;47.53;;;;;;;15.03;82.85;101870.16;3610878;22;20576;-62
2022/05/20 05:32:41;;;;;;;53.85;48.13;;;;;;;15.07;83.35;101870.84;3581831;39;20055;-62
2022/05/20 05:35:13;;;;;;;53.00;47.20;;;;;;;15.11;83.64;101852.56;3581255;40;20150;-64
2022/05/20 05:37:41;;;;;;;55.42;46.05;;;;;;;15.12;83.17;101846.16;3581385;40;20059;-61
2022/05/20 05:40:11;;;;;;;53.28;44.50;;;;;;;15.05;82.99;101824.03;3580246;40;20052;-61
2022/05/20 05:42:37;;;;;;;47.38;42.20;;;;;;;15.18;82.98;101834.91;3580398;40;20133;-61
2022/05/20 05:45:05;;;;;;;48.58;40.78;;;;;;;15.21;82.35;101829.31;3580809;40;20056;-61
2022/05/20 05:47:30;;;;;;;51.47;40.80;;;;;;;15.18;82.11;101813.25;3581948;40;20056;-62
2022/05/20 05:49:56;;;;;;;47.28;39.53;;;;;;;15.39;81.39;101844.34;3580912;40;20059;-62
2022/05/20 05:52:22;;;;;;;46.63;38.95;;;;;;;15.50;81.72;101838.22;3585425;40;20056;-62
2022/05/20 05:54:48;;;;;;;46.00;36.05;;;;;;;15.59;80.04;101823.19;3583079;40;21694;-62
2022/05/20 05:57:13;;;;;;;43.17;35.33;;;;;;;15.74;80.53;101824.91;3582465;40;20056;-60
2022/05/20 05:59:40;;;;;;;35.55;31.58;;;;;;;15.82;78.41;101837.94;3583355;40;20141;-62
2022/05/20 06:02:08;;;;;;;34.42;29.23;;;;;;;15.88;77.31;101841.09;3580542;40;20056;-61
2022/05/20 06:04:34;;;;;;;33.35;29.17;;;;;;;15.96;78.15;101836.03;3582087;40;20064;-62
2022/05/20 06:07:01;;;;;;;30.83;25.67;;;;;;;15.92;75.22;101825.47;3582214;40;20073;-61
2022/05/20 06:09:27;;;;;;;30.65;26.77;;;;;;;16.02;76.35;101837.47;3582600;40;20060;-62
2022/05/20 06:11:53;;;;;;;28.40;23.70;;;;;;;16.10;75.90;101843.22;3582390;40;20070;-61
2022/05/20 06:14:19;;;;;;;27.77;23.52;;;;;;;16.23;75.31;101824.22;3581663;40;20098;-61
2022/05/20 06:16:45;;;;;;;29.00;24.98;;;;;;;16.43;75.41;101825.56;3579490;40;20470;-62
2022/05/20 06:19:11;;;;;;;27.70;22.20;;;;;;;16.65;74.73;101820.34;3583870;40;20060;-63
2022/05/20 06:21:40;;;;;;;31.15;24.23;;;;;;;16.63;73.73;101778.88;3581176;40;20064;-62
2022/05/20 06:24:08;;;;;;;27.15;19.98;;;;;;;17.01;72.02;101815.97;3582037;40;20059;-62
2022/05/20 06:26:38;;;;;;;23.67;17.70;;;;;;;17.10;70.55;101814.44;3579336;40;20128;-62
2022/05/20 06:29:05;;;;;;;21.00;17.27;;;;;;;17.17;70.14;101821.16;3583411;40;20062;-62
2022/05/20 06:31:31;;;;;;;22.38;16.35;;;;;;;17.06;68.74;101802.03;3581150;40;20142;-61
2022/05/20 06:34:00;;;;;;;16.90;13.32;;;;;;;17.17;66.44;101815.72;3583122;40;20076;-62
2022/05/20 06:41:58;;;;;;;15.88;11.27;;;;;;;17.27;66.84;101792.31;3583371;40;20103;-63
2022/05/20 06:44:24;;;;;;;15.63;13.15;;;;;;;17.31;67.17;101790.22;3582475;40;20056;-62
2022/05/20 06:46:50;;;;;;;14.63;12.20;;;;;;;17.49;66.00;101788.84;3582135;40;20056;-62
2022/05/20 06:49:16;;;;;;;16.85;12.40;;;;;;;17.64;66.70;101786.81;3581596;40;20057;-62
2022/05/20 06:51:42;;;;;;;17.20;13.95;;;;;;;17.88;67.02;101794.97;3582577;40;20112;-62
2022/05/20 06:54:11;;;;;;;17.25;13.25;;;;;;;18.05;64.46;101796.41;3583264;40;20048;-63
2022/05/20 06:56:39;;;;;;;15.80;12.80;;;;;;;18.20;65.66;101797.03;3580720;40;20051;-62
2022/05/20 06:59:07;;;;;;;14.77;12.50;;;;;;;18.22;63.44;101795.91;3582435;40;20060;-62
2022/05/20 07:01:33;;;;;;;13.25;11.55;;;;;;;18.29;64.46;101783.56;3582137;40;20173;-62
2022/05/20 07:03:59;;;;;;;14.82;10.30;;;;;;;18.25;62.21;101781.22;3581598;40;20357;-63
2022/05/20 07:06:27;;;;;;;14.02;9.30;;;;;;;18.29;61.96;101778.13;3582926;40;20071;-61
2022/05/20 07:08:53;;;;;;;14.90;9.30;;;;;;;18.36;62.65;101777.63;3583293;40;20121;-62
2022/05/20 07:11:23;;;;;;;15.38;9.68;;;;;;;18.45;62.05;101766.88;3581928;40;20060;-61
2022/05/20 07:13:54;;;;;;;12.43;9.68;;;;;;;18.55;61.33;101761.53;3582383;40;20311;-62
2022/05/20 07:16:21;;;;;;;11.73;8.27;;;;;;;18.83;60.57;101764.78;3583135;40;20048;-62
2022/05/20 07:18:47;;;;;;;9.35;8.32;;;;;;;18.93;59.86;101761.16;3582140;40;20125;-62
2022/05/20 07:21:13;;;;;;;9.65;8.10;;;;;;;19.10;59.40;101754.34;3580853;40;20052;-62
2022/05/20 07:23:38;;;;;;;11.93;8.13;;;;;;;19.16;59.43;101718.41;3582379;40;20088;-62
2022/05/20 07:26:05;;;;;;;14.23;8.23;;;;;;;19.59;58.85;101752.94;3582592;40;20063;-61
2022/05/20 07:28:32;;;;;;;11.35;7.35;;;;;;;19.82;59.25;101745.56;3581325;40;20058;-62
2022/05/20 07:30:58;;;;;;;9.40;6.80;;;;;;;19.91;56.87;101741.13;3581895;40;20056;-62
2022/05/20 07:33:23;;;;;;;10.30;7.03;;;;;;;19.97;56.02;101743.34;3582908;40;20391;-60
2022/05/20 07:35:49;;;;;;;11.02;6.72;;;;;;;20.03;56.14;101748.25;3581664;40;20071;-62
2022/05/20 07:38:15;;;;;;;11.95;6.35;;;;;;;20.13;55.49;101751.91;3582973;40;20117;-62
2022/05/20 07:40:43;;;;;;;10.50;6.43;;;;;;;20.32;55.69;101755.75;3581116;40;20158;-62
2022/05/20 07:43:09;;;;;;;11.60;6.97;;;;;;;20.35;54.28;101741.84;3582536;40;20057;-62
2022/05/20 07:45:35;;;;;;;8.25;6.28;;;;;;;20.37;53.99;101731.66;3581566;40;20313;-61
2022/05/20 07:48:01;;;;;;;8.57;6.38;;;;;;;20.52;56.54;101730.31;3583353;40;20063;-63
2022/05/20 07:50:26;;;;;;;10.90;6.38;;;;;;;20.67;53.43;101705.34;3582642;40;20052;-63
2022/05/20 07:55:48;;;;;;;8.15;5.97;;;;;;;21.30;53.03;101714.94;3580864;40;20129;-63
2022/05/20 07:58:20;;;;;;;9.00;6.63;;;;;;;21.42;52.96;101715.69;3580715;40;20089;-61
2022/05/20 08:00:46;;;;;;;9.25;6.75;;;;;;;21.55;52.24;101712.69;3580738;40;20064;-61
2022/05/20 08:04:52;;;;;;;10.48;5.80;;;;;;;21.70;51.48;101699.44;3581749;40;20441;-61
2022/05/20 08:06:03;;;;;;;8.32;5.75;;;;;;;21.77;50.10;101692.34;3582392;40;20126;-61
2022/05/20 08:08:29;;;;;;;7.60;5.57;;;;;;;21.77;50.85;101667.72;3580923;40;20462;-61
2022/05/20 08:10:56;;;;;;;8.40;5.05;;;;;;;21.95;49.88;101687.00;3582072;40;20106;-61
2022/05/20 08:13:21;;;;;;;11.88;5.53;;;;;;;22.11;47.89;101691.84;3581515;40;20048;-61
2022/05/20 08:15:49;;;;;;;11.60;5.03;;;;;;;22.15;49.59;101694.13;3580614;40;20145;-60
2022/05/20 08:18:17;;;;;;;7.28;5.10;;;;;;;22.28;48.63;101682.00;3582510;40;20394;-61
2022/05/20 08:20:43;;;;;;;8.38;5.78;;;;;;;22.38;47.42;101700.13;3580129;40;20113;-61
2022/05/20 08:23:09;;;;;;;7.75;5.85;;;;;;;22.34;47.62;101687.75;3580970;40;20057;-61
2022/05/20 08:25:36;;;;;;;10.55;6.03;;;;;;;22.46;48.51;101686.53;3580656;40;20056;-61
2022/05/20 08:28:03;;;;;;;10.35;6.03;;;;;;;22.71;48.73;101684.97;3580749;40;20121;-61
2022/05/20 08:30:30;;;;;;;8.02;5.80;;;;;;;22.76;46.95;101673.53;3581912;40;20052;-61
2022/05/20 08:32:55;;;;;;;9.80;6.53;;;;;;;22.74;46.57;101681.06;3582206;40;20055;-61
2022/05/20 08:35:21;;;;;;;10.02;6.68;;;;;;;22.65;47.66;101680.09;3581173;40;20052;-61
2022/05/20 08:37:48;;;;;;;9.13;7.38;;;;;;;22.43;48.60;101685.97;3580966;40;20096;-61
2022/05/20 08:40:41;;;;;;;15.32;6.93;;;;;;;22.30;48.81;101666.28;3580186;40;20052;-62
2022/05/20 08:43:06;;;;;;;11.18;7.28;;;;;;;21.73;48.87;101581.44;3581629;40;20049;-62
2022/05/20 08:45:32;;;;;;;11.18;7.53;;;;;;;22.10;49.86;101643.53;3581379;40;20120;-62
2022/05/20 08:47:58;;;;;;;12.50;7.68;;;;;;;22.12;49.94;101628.69;3581689;40;20439;-61
2022/05/20 08:50:51;;;;;;;10.77;7.35;;;;;;;22.24;49.97;101623.94;3581277;40;20163;-61
2022/05/20 08:53:32;;;;;;;10.43;7.03;;;;;;;22.55;50.18;101629.06;3580601;40;20048;-62
2022/05/20 08:56:15;;;;;;;10.80;8.38;;;;;;;22.70;48.52;101617.44;3580209;40;20063;-62
2022/05/20 08:58:55;;;;;;;9.32;7.97;;;;;;;22.76;47.77;101615.97;3579996;40;20322;-63
2022/05/20 09:01:36;;;;;;;11.65;8.68;;;;;;;22.90;48.40;101620.91;3580102;40;20125;-60
2022/05/20 09:04:06;;;;;;;12.07;9.45;;;;;;;22.66;48.02;101609.69;3581180;40;20381;-61
2022/05/20 09:06:35;;;;;;;12.15;9.60;;;;;;;22.44;48.76;101609.09;3580210;40;20060;-62
2022/05/20 09:09:14;;;;;;;11.93;9.25;;;;;;;22.24;50.28;101608.34;3580150;40;20298;-62
2022/05/20 09:11:42;;;;;;;12.65;9.57;;;;;;;22.22;50.93;101612.25;3579397;40;20053;-62
2022/05/20 09:17:21;;;;;;;14.50;9.02;;;;;;;22.51;50.76;101605.75;3580136;40;20075;-62
2022/05/20 09:20:06;;;;;;;12.90;9.30;;;;;;;22.59;49.08;101590.25;3582129;40;20064;-61
2022/05/20 09:22:39;;;;;;;12.80;9.98;;;;;;;22.62;49.46;101587.22;3581723;40;20118;-61
2022/05/20 09:25:21;;;;;;;15.82;10.00;;;;;;;22.84;48.94;101580.41;3583873;40;20056;-61
2022/05/20 09:27:47;;;;;;;13.35;10.25;;;;;;;23.03;48.61;101567.59;3581820;40;20070;-61
2022/05/20 09:30:23;;;;;;;13.50;10.77;;;;;;;23.05;47.83;101549.09;3582780;40;20090;-61
2022/05/20 09:33:17;;;;;;;14.70;10.57;;;;;;;23.15;48.26;101548.00;3582846;40;20088;-61
2022/05/20 09:35:58;;;;;;;13.70;10.07;;;;;;;22.98;48.16;101512.34;3581730;40;20110;-61
2022/05/20 09:38:41;;;;;;;15.27;11.43;;;;;;;23.48;49.42;101544.59;3578682;40;20142;-62
2022/05/20 09:41:22;;;;;;;19.98;11.20;;;;;;;23.90;47.82;101536.47;3590010;39;20129;-61
2022/05/20 09:44:00;;;;;;;15.57;11.27;;;;;;;24.06;47.21;101528.28;3581289;40;20391;-62
2022/05/20 09:46:48;;;;;;;16.27;10.98;;;;;;;24.23;47.89;101518.22;3583227;40;20406;-62
2022/05/20 09:49:52;;;;;;;14.73;11.90;;;;;;;24.50;47.36;101508.00;3582124;40;20056;-60
2022/05/20 09:52:26;;;;;;;;;;;;;;;24.46;46.30;101506.63;3580764;40;20054;-60
2022/05/20 09:55:04;;;;;;;15.07;11.85;;;;;;;24.66;47.26;101494.25;3581725;40;20045;-61
2022/05/20 09:57:40;;;;;;;16.40;12.27;;;;;;;24.92;47.01;101490.47;3588456;39;20295;-61
2022/05/20 10:00:28;;;;;;;18.08;11.90;;;;;;;25.40;47.07;101483.22;3580511;40;20049;-61
2022/05/20 10:03:10;;;;;;;15.13;12.25;;;;;;;25.51;45.14;101466.34;3580313;40;20064;-60
2022/05/20 10:05:54;;;;;;;15.05;11.93;;;;;;;25.45;45.12;101454.13;3582039;40;20064;-61
2022/05/20 10:08:35;;;;;;;14.85;12.18;;;;;;;25.46;46.33;101450.31;3582174;40;20048;-62
2022/05/20 10:11:28;;;;;;;16.50;11.82;;;;;;;25.21;45.81;101449.56;3582772;40;20398;-60
2022/05/20 10:14:14;;;;;;;15.15;11.43;;;;;;;25.11;46.87;101440.59;3592134;40;20110;-60
2022/05/20 10:17:02;;;;;;;15.52;12.00;;;;;;;24.98;47.20;101424.63;3583390;40;20129;-61
2022/05/20 10:20:22;;;;;;;15.18;12.23;;;;;;;24.78;45.69;101423.28;3583762;40;20367;-61
2022/05/20 10:23:11;;;;;;;16.60;12.30;;;;;;;24.37;47.60;101415.03;3557639;40;20065;-60
2022/05/20 10:26:03;;;;;;;17.73;12.48;;;;;;;24.18;48.79;101399.72;3557480;40;20416;-61
2022/05/20 10:34:35;;;;;;;15.45;11.95;;;;;;;24.07;48.81;101387.19;3581959;40;20602;-61
2022/05/20 10:37:16;;;;;;;16.40;11.88;;;;;;;23.99;48.36;101383.56;3582865;40;20586;-61
2022/05/20 10:40:30;;;;;;;16.75;11.23;;;;;;;23.88;49.47;101370.97;3583338;40;20067;-61
2022/05/20 10:49:55;;;;;;;14.93;11.23;;;;;;;23.61;50.45;101320.81;3582662;40;20078;-60
2022/05/20 10:52:41;;;;;;;15.80;10.75;;;;;;;23.62;48.91;101305.19;3581647;40;20044;-60
2022/05/20 10:55:22;;;;;;;16.55;11.00;;;;;;;23.59;48.94;101302.78;3581634;40;20291;-60
2022/05/20 10:58:29;;;;;;;15.40;10.82;;;;;;;23.56;50.08;101286.66;3583682;40;20048;-60
2022/05/20 11:01:04;;;;;;;12.40;9.70;;;;;;;23.57;50.42;101270.03;3579536;40;20291;-61
2022/05/20 11:04:10;;;;;;;14.27;11.10;;;;;;;23.54;50.07;101261.28;3582047;40;20080;-61
2022/05/20 11:07:15;;;;;;;13.63;10.65;;;;;;;23.55;50.88;101243.78;3582680;40;20326;-61
2022/05/20 11:10:07;;;;;;;15.40;11.45;;;;;;;23.50;50.71;101237.94;3582399;40;20169;-61
2022/05/20 11:13:22;;;;;;;22.57;13.40;;;;;;;23.56;50.81;101229.00;3581543;40;20060;-60
2022/05/20 11:16:12;;;;;;;;;;;;;;;23.56;51.27;101212.53;3582431;40;20115;-61
2022/05/20 11:19:07;;;;;;;16.20;13.25;;;;;;;23.49;50.51;101214.25;3579399;40;19939;-61
2022/05/20 11:22:33;;;;;;;16.00;12.95;;;;;;;23.59;51.24;101212.22;3581308;40;20091;-61
2022/05/20 11:25:07;;;;;;;20.02;14.20;;;;;;;23.60;52.28;101206.56;3570963;40;20387;-61
2022/05/20 11:28:03;;;;;;;21.42;15.00;;;;;;;23.61;52.35;101199.19;3580461;40;20154;-61
2022/05/20 11:31:04;;;;;;;23.15;16.35;;;;;;;23.54;52.62;101189.94;3580619;40;20126;-61
2022/05/20 11:33:57;;;;;;;20.27;15.77;;;;;;;23.46;52.88;101200.88;3603759;22;20064;-66
2022/05/20 11:36:49;;;;;;;;;;;;;;;23.34;53.64;101209.47;3562178;40;20049;-66
2022/05/20 11:39:27;;;;;;;20.13;17.17;;;;;;;23.21;54.42;101184.38;3559497;40;19951;-66
2022/05/20 11:42:38;;;;;;;20.65;17.42;;;;;;;23.12;54.55;101183.53;3564265;40;20048;-67
2022/05/20 11:45:32;;;;;;;24.73;18.30;;;;;;;22.90;54.93;101184.97;3556092;40;20057;-65
2022/05/20 11:48:25;;;;;;;22.15;18.55;;;;;;;22.78;56.20;101183.56;3551560;40;20389;-65
2022/05/20 11:51:04;;;;;;;25.50;18.40;;;;;;;22.74;56.67;101162.13;3553738;40;20046;-66
2022/05/20 11:54:00;;;;;;;24.13;19.05;;;;;;;22.65;57.00;101136.59;3552341;40;20061;-66
2022/05/20 11:56:42;;;;;;;24.90;18.85;;;;;;;22.52;57.71;101115.13;3552675;40;20060;-66
2022/05/20 11:59:25;;;;;;;25.88;22.15;;;;;;;22.44;57.16;101132.38;3554325;40;20057;-65
2022/05/20 12:01:58;;;;;;;26.58;21.88;;;;;;;22.34;58.40;101152.72;3553459;40;20389;-65
2022/05/20 12:04:30;;;;;;;27.90;21.95;;;;;;;22.30;59.29;101176.84;3553368;40;20120;-65
2022/05/20 12:07:13;;;;;;;29.15;23.92;;;;;;;22.23;62.45;101192.19;3555061;40;20061;-66
2022/05/20 12:09:43;;;;;;;32.00;25.13;;;;;;;22.07;64.63;101154.56;3552921;40;20061;-65
2022/05/20 12:12:33;;;;;;;37.65;28.73;;;;;;;21.84;68.00;101131.50;3552366;40;20084;-66
2022/05/20 12:15:13;;;;;;;36.03;29.85;;;;;;;21.58;69.62;101120.56;3552100;40;20366;-65
2022/05/20 12:17:45;;;;;;;37.55;31.15;;;;;;;21.33;71.14;101114.84;3552383;40;20072;-65
2022/05/20 12:26:07;;;;;;;43.95;33.03;;;;;;;20.84;74.71;101125.31;3551215;40;20123;-65